1 de octubre de 2022

Hora Código Tiempo Temp. Visibilidad Cielo nuboso Viento METAR/SPECI
01:00
V
10 °C 9 mi - Var Var 5 kt METAR CYTZ 010500Z AUTO VRB05KT 9SM CLR 10/07 A3020 RMK SLP228
00:00
V
11 °C 9 mi - 190° 190° 3 kt METAR CYTZ 010400Z AUTO 19003KT 140V210 9SM CLR 11/08 A3020 RMK SLP230

30 de septiembre de 2022

Hora Código Tiempo Temp. Visibilidad Cielo nuboso Viento METAR/SPECI
23:00
V
11 °C 9 mi - Var Var 2 kt METAR CYTZ 010300Z AUTO VRB02KT 9SM CLR 11/08 A3020 RMK SLP230
22:00
V
13 °C 9 mi - Var 000° 0 kt METAR CYTZ 010200Z AUTO 00000KT 9SM CLR 13/08 A3021 RMK SLP234
21:00
V
13 °C 9 mi - 050° 050° 9 kt METAR CYTZ 010100Z AUTO 05009KT 9SM CLR 13/08 A3022 RMK SLP236
20:00
V
12 °C 9 mi - 070° 070° 4 kt METAR CYTZ 010000Z AUTO 07004KT 9SM CLR 12/09 A3022 RMK SLP238
19:00
V
13 °C 9 mi - 070° 070° 5 kt METAR CYTZ 302300Z AUTO 07005KT 9SM CLR 13/10 A3023 RMK SLP240
18:00
V
13 °C 9 mi - 080° 080° 3 kt METAR CYTZ 302200Z AUTO 08003KT 9SM CLR 13/09 A3023 RMK SLP242
17:00
V
14 °C 9 mi - 190° 190° 3 kt METAR CYTZ 302100Z AUTO 19003KT 170V310 9SM CLR 14/09 A3025 RMK SLP247
16:00
V
14 °C 9 mi - 160° 160° 4 kt METAR CYTZ 302000Z AUTO 16004KT 9SM CLR 14/08 A3027 RMK SLP255
15:00
V
15 °C 9 mi - 150° 150° 4 kt METAR CYTZ 301900Z AUTO 15004KT 9SM CLR 15/09 A3030 RMK SLP263
14:00
V
14 °C 9 mi - 190° 190° 6 kt METAR CYTZ 301800Z AUTO 19006KT 180V270 9SM CLR 14/08 A3033 RMK SLP273
13:00
V
14 °C 9 mi - 250° 250° 6 kt METAR CYTZ 301700Z AUTO 25006KT 200V300 9SM CLR 14/09 A3035 RMK SLP280
12:00
V
14 °C 9 mi - 130° 130° 5 kt METAR CYTZ 301600Z AUTO 13005KT 060V180 9SM CLR 14/06 A3037 RMK SLP289
11:00
V
14 °C 9 mi - 060° 060° 9 kt METAR CYTZ 301500Z AUTO 06009KT 050V140 9SM CLR 14/06 A3038 RMK SLP292
10:00
V
13 °C 9 mi - 110° 110° 3 kt METAR CYTZ 301400Z AUTO 11003KT 070V130 9SM CLR 13/06 A3039 RMK SLP293
09:00
V
12 °C 9 mi - 070° 070° 7 kt METAR CYTZ 301300Z AUTO 07007KT 050V110 9SM CLR 12/06 A3039 RMK SLP294
08:00
V
8 °C 9 mi - Var Var 2 kt METAR CYTZ 301200Z AUTO VRB02KT 9SM CLR 08/08 A3039 RMK SLP297
07:00
V
7 °C 9 mi - Var Var 2 kt METAR CYTZ 301100Z AUTO VRB02KT 9SM CLR 07/06 A3038 RMK SLP292
06:00
V
7 °C 9 mi - 230° 230° 3 kt METAR CYTZ 301000Z AUTO 23003KT 220V280 9SM CLR 07/06 A3038 RMK SLP292
05:00
V
8 °C 9 mi - Var Var 2 kt METAR CYTZ 300900Z AUTO VRB02KT 9SM CLR 08/07 A3038 RMK SLP291
04:20
V
7 °C 6 mi - Var 000° 0 kt METAR CYTZ 300820Z AUTO 00000KT 6SM BR CLR 07/07 A3038 RMK SLP292
04:11
M
8 °C 4 mi - Var 000° 0 kt METAR CYTZ 300811Z AUTO 00000KT 4SM BR CLR 08/07 A3038 RMK SLP293
04:00
V
8 °C 9 mi - 220° 220° 2 kt METAR CYTZ 300800Z AUTO 22002KT 9SM CLR 08/07 A3038 RMK SLP292
03:00
V
8 °C 9 mi - 270° 270° 2 kt METAR CYTZ 300700Z AUTO 27002KT 9SM CLR 08/07 A3039 RMK SLP294
02:00
V
8 °C 9 mi - 140° 140° 3 kt METAR CYTZ 300600Z AUTO 14003KT 110V170 9SM CLR 08/07 A3039 RMK SLP295
01:00
V
10 °C 9 mi - Var 000° 0 kt METAR CYTZ 300500Z AUTO 00000KT 9SM CLR 10/09 A3039 RMK SLP296
00:00
V
9 °C 9 mi - 100° 100° 2 kt METAR CYTZ 300400Z AUTO 10002KT 9SM CLR 09/08 A3040 RMK SLP299

29 de septiembre de 2022

Hora Código Tiempo Temp. Visibilidad Cielo nuboso Viento METAR/SPECI
23:00
V
10 °C 9 mi - 070° 070° 4 kt METAR CYTZ 300300Z AUTO 07004KT 030V140 9SM CLR 10/08 A3041 RMK SLP301
22:00
V
10 °C 9 mi - 080° 080° 3 kt METAR CYTZ 300200Z AUTO 08003KT 050V140 9SM CLR 10/08 A3041 RMK SLP302
21:00
V
9 °C 9 mi - Var Var 2 kt METAR CYTZ 300100Z AUTO VRB02KT 9SM CLR 09/07 A3041 RMK SLP300
20:00
V
10 °C 9 mi - 070° 070° 3 kt METAR CYTZ 300000Z AUTO 07003KT 050V130 9SM CLR 10/08 A3041 RMK SLP302
19:00
V
12 °C 9 mi - Var 000° 0 kt METAR CYTZ 292300Z AUTO 00000KT 9SM CLR 12/06 A3042 RMK SLP303
18:00
V
13 °C 9 mi - 190° 190° 3 kt METAR CYTZ 292200Z AUTO 19003KT 9SM CLR 13/06 A3042 RMK SLP304
17:00
V
13 °C 9 mi - 180° 180° 5 kt METAR CYTZ 292100Z AUTO 18005KT 160V220 9SM CLR 13/06 A3043 RMK SLP309
16:00
V
13 °C 9 mi - 190° 190° 5 kt METAR CYTZ 292000Z AUTO 19005KT 170V270 9SM CLR 13/06 A3044 RMK SLP312
15:00
V
13 °C 9 mi - 190° 190° 7 kt METAR CYTZ 291900Z AUTO 19007KT 150V220 9SM CLR 13/06 A3046 RMK SLP317
14:00
V
12 °C 9 mi - 170° 170° 6 kt METAR CYTZ 291800Z AUTO 17006KT 9SM CLR 12/06 A3048 RMK SLP325
13:00
V
12 °C 9 mi - 180° 180° 6 kt METAR CYTZ 291700Z AUTO 18006KT 150V270 9SM CLR 12/05 A3050 RMK SLP332
12:00
V
12 °C 9 mi - 140° 140° 5 kt METAR CYTZ 291600Z AUTO 14005KT 9SM CLR 12/05 A3051 RMK SLP335
11:00
V
12 °C 9 mi - 160° 160° 4 kt METAR CYTZ 291500Z AUTO 16004KT 080V180 9SM SCT034 12/05 A3052 RMK SLP339
10:00
V
11 °C 9 mi - 090° 090° 7 kt METAR CYTZ 291400Z AUTO 09007KT 060V120 9SM CLR 11/05 A3052 RMK SLP339
09:00
V
11 °C 9 mi - 060° 060° 9 kt METAR CYTZ 291300Z AUTO 06009KT 9SM CLR 11/04 A3051 RMK SLP336
08:00
V
10 °C 9 mi - 060° 060° 12 kt METAR CYTZ 291200Z AUTO 06012KT 9SM SCT023 10/05 A3050 RMK SLP332
07:57
V
10 °C 9 mi - 050° 050° 12 kt METAR CYTZ 291157Z AUTO 05012KT 9SM SCT023 10/05 A3050 RMK SLP332
07:00
M
10 °C 9 mi 2.300 ft 050° 050° 11 kt METAR CYTZ 291100Z AUTO 05011KT 9SM BKN023 OVC044 10/04 A3048 RMK SLP325
06:51
M
10 °C 9 mi 2.300 ft 040° 040° 12 kt METAR CYTZ 291051Z AUTO 04012KT 9SM BKN023 OVC044 10/04 A3048 RMK SLP326
06:00
V
10 °C 9 mi 4.400 ft 050° 050° 9 kt METAR CYTZ 291000Z AUTO 05009KT 9SM FEW030 BKN044 10/04 A3047 RMK SLP321
05:00
V
11 °C 9 mi 4.200 ft 320° 320° 7 kt METAR CYTZ 290900Z AUTO 32007KT 270V360 9SM FEW030 OVC042 11/05 A3046 RMK SLP317
04:00
V
11 °C 9 mi 4.400 ft 320° 320° 7 kt METAR CYTZ 290800Z AUTO 32007KT 260V350 9SM SCT032 OVC044 11/06 A3045 RMK SLP315
03:00
V
11 °C 9 mi 4.200 ft 320° 320° 7 kt METAR CYTZ 290700Z AUTO 32007KT 280V350 9SM OVC042 11/05 A3045 RMK SLP314
02:00
V
11 °C 9 mi 4.300 ft 320° 320° 7 kt METAR CYTZ 290600Z AUTO 32007KT 280V350 9SM BKN043 11/05 A3044 RMK SLP310
01:00
V
12 °C 9 mi 4.300 ft 350° 350° 4 - 15 kt METAR CYTZ 290500Z AUTO 35004G15KT 300V360 9SM OVC043 12/05 A3044 RMK SLP310
Datos más antiguos

Nosotros y terceros seguimos tu comportamiento en Internet en nuestro sitio web con cookies. Si continúas, asumimos que estás de acuerdo con nuestra política de cookies. Más información